Time;durP1;ratioP1;P1;durP2;ratioP2;P2;SDS_P1;SDS_P2;PMS_P1;PMS_P2;Temp;Humidity;BMP_temperature;BMP_pressure;BME280_temperature;BME280_humidity;BME280_pressure;Samples;Min_cycle;Max_cycle;Signal;HPM_P1;HPM_P2
2023/04/09 00:00:35;;;;;;;30.20;21.15;;;11.10;81.50;;;;;;5090324;28;20073;-68
2023/04/09 00:03:01;;;;;;;27.55;20.00;;;11.00;81.70;;;;;;5089050;28;20159;-68
2023/04/09 00:05:26;;;;;;;25.17;17.98;;;11.00;81.90;;;;;;5087862;28;20427;-68
2023/04/09 00:07:52;;;;;;;30.30;20.67;;;11.00;82.00;;;;;;5089634;28;20024;-68
2023/04/09 00:10:17;;;;;;;29.52;20.23;;;11.10;81.80;;;;;;5089916;28;20391;-68
2023/04/09 00:12:43;;;;;;;31.65;20.90;;;11.00;81.70;;;;;;5086787;28;20089;-67
2023/04/09 00:15:09;;;;;;;27.23;18.55;;;11.00;81.80;;;;;;5088461;28;20020;-68
2023/04/09 00:17:35;;;;;;;29.60;20.48;;;11.10;81.70;;;;;;5080699;28;20078;-67
2023/04/09 00:20:00;;;;;;;30.42;21.67;;;11.10;81.70;;;;;;5087870;28;20039;-66
2023/04/09 00:22:26;;;;;;;27.77;18.90;;;11.10;81.60;;;;;;5090437;28;20490;-67
2023/04/09 00:24:51;;;;;;;27.63;18.92;;;11.10;81.50;;;;;;5086033;28;20579;-66
2023/04/09 00:27:17;;;;;;;24.75;18.20;;;11.20;81.40;;;;;;5079935;28;20055;-66
2023/04/09 00:29:42;;;;;;;24.15;17.98;;;11.20;81.30;;;;;;5078307;28;20032;-68
2023/04/09 00:32:08;;;;;;;27.15;17.95;;;11.30;81.20;;;;;;5084344;28;20020;-66
2023/04/09 00:34:34;;;;;;;23.35;16.10;;;11.30;81.10;;;;;;5072864;28;20498;-67
2023/04/09 00:36:59;;;;;;;25.73;17.25;;;11.30;80.90;;;;;;5077007;28;20502;-67
2023/04/09 00:39:25;;;;;;;30.25;20.80;;;11.40;80.80;;;;;;5091711;28;20086;-67
2023/04/09 00:41:57;;;;;;;30.35;21.30;;;11.30;80.70;;;;;;5085364;28;20025;-68
2023/04/09 00:44:23;;;;;;;28.90;19.23;;;11.30;81.00;;;;;;5083523;28;20209;-68
2023/04/09 00:46:49;;;;;;;27.80;18.83;;;11.20;81.00;;;;;;5080635;28;20145;-68
2023/04/09 00:49:15;;;;;;;26.30;18.45;;;11.20;81.10;;;;;;5072253;28;20025;-66
2023/04/09 00:51:41;;;;;;;28.65;20.13;;;11.20;81.00;;;;;;5072749;28;20034;-66
2023/04/09 00:54:06;;;;;;;29.10;19.10;;;11.10;81.20;;;;;;5090493;28;20013;-66
2023/04/09 00:56:33;;;;;;;33.35;22.73;;;11.20;81.20;;;;;;5089227;28;20030;-67
2023/04/09 00:58:59;;;;;;;29.67;20.75;;;11.10;81.40;;;;;;5072785;28;20020;-67
2023/04/09 01:01:25;;;;;;;30.90;20.67;;;11.00;81.60;;;;;;5072376;28;20051;-67
2023/04/09 01:03:50;;;;;;;30.63;20.95;;;11.00;81.70;;;;;;5086002;28;20048;-68
2023/04/09 01:06:37;;;;;;;26.02;18.42;;;11.00;81.90;;;;;;5087656;28;20036;-67
2023/04/09 01:09:41;;;;;;;33.42;21.35;;;11.00;82.00;;;;;;5087505;28;20486;-68
2023/04/09 01:12:12;;;;;;;29.58;19.40;;;11.00;82.10;;;;;;5084661;28;20028;-69
2023/04/09 01:14:52;;;;;;;30.73;21.00;;;11.00;82.00;;;;;;5089174;28;20027;-67
2023/04/09 01:17:28;;;;;;;31.80;22.00;;;10.90;82.20;;;;;;5082324;28;20044;-67
2023/04/09 01:20:02;;;;;;;29.63;20.50;;;10.90;82.30;;;;;;5089602;28;20050;-67
2023/04/09 01:23:00;;;;;;;26.13;18.38;;;10.90;82.30;;;;;;5084090;28;20101;-67
2023/04/09 01:26:01;;;;;;;25.25;18.63;;;11.00;82.30;;;;;;5081642;28;20039;-69
2023/04/09 01:28:38;;;;;;;30.58;21.45;;;11.00;82.10;;;;;;5074014;28;20028;-68
2023/04/09 01:31:10;;;;;;;30.08;20.80;;;11.00;82.20;;;;;;5083258;28;20123;-68
2023/04/09 01:33:37;;;;;;;28.60;20.42;;;10.90;82.40;;;;;;5089278;28;20379;-67
2023/04/09 01:36:04;;;;;;;30.00;20.83;;;10.90;82.40;;;;;;5079598;28;20394;-68
2023/04/09 01:38:32;;;;;;;29.92;21.45;;;11.00;82.50;;;;;;5084618;28;20025;-67
2023/04/09 01:40:59;;;;;;;29.65;21.00;;;10.90;82.50;;;;;;5084734;28;20078;-68
2023/04/09 01:43:26;;;;;;;33.30;21.83;;;10.90;82.70;;;;;;5073005;28;20047;-68
2023/04/09 01:45:52;;;;;;;31.00;21.77;;;10.80;82.90;;;;;;5076474;28;20099;-68
2023/04/09 01:48:19;;;;;;;27.60;20.40;;;10.80;83.10;;;;;;5088746;28;20627;-67
2023/04/09 01:50:45;;;;;;;30.42;20.05;;;10.90;83.10;;;;;;5075475;28;20020;-68
2023/04/09 01:53:11;;;;;;;27.88;19.10;;;10.90;82.90;;;;;;5084336;28;20020;-67
2023/04/09 01:55:37;;;;;;;23.42;16.95;;;10.90;82.80;;;;;;5086005;28;20016;-67
2023/04/09 01:58:02;;;;;;;26.02;18.58;;;10.90;82.80;;;;;;5083111;28;20479;-68
2023/04/09 02:00:39;;;;;;;25.65;17.55;;;11.00;82.60;;;;;;5076907;28;20032;-67
2023/04/09 02:03:32;;;;;;;29.25;21.20;;;11.00;82.50;;;;;;5087115;28;20066;-68
2023/04/09 02:06:05;;;;;;;26.55;18.45;;;11.00;82.50;;;;;;5088277;28;20511;-69
2023/04/09 02:08:33;;;;;;;26.80;18.63;;;11.00;82.60;;;;;;5088398;28;20039;-68
2023/04/09 02:11:01;;;;;;;31.30;21.70;;;10.90;82.70;;;;;;5074588;28;20032;-67
2023/04/09 02:13:29;;;;;;;33.17;22.50;;;11.00;82.80;;;;;;5084310;28;20111;-68
2023/04/09 02:15:57;;;;;;;31.83;22.00;;;11.00;82.70;;;;;;5076487;28;20016;-68
2023/04/09 02:18:23;;;;;;;27.08;19.33;;;11.00;82.70;;;;;;5077440;28;20479;-67
2023/04/09 02:20:49;;;;;;;27.38;19.60;;;11.00;82.70;;;;;;5076367;28;20039;-67
2023/04/09 02:23:16;;;;;;;26.52;19.55;;;10.90;82.80;;;;;;5088435;28;20402;-67
2023/04/09 02:25:42;;;;;;;25.63;18.30;;;11.00;82.80;;;;;;5084331;28;20065;-66
2023/04/09 02:28:08;;;;;;;27.75;19.77;;;11.00;82.90;;;;;;5070796;28;20032;-68
2023/04/09 02:30:33;;;;;;;29.77;20.73;;;10.90;82.90;;;;;;5079336;28;20024;-67
2023/04/09 02:32:59;;;;;;;27.67;20.48;;;10.90;83.20;;;;;;5089068;28;20024;-67
2023/04/09 02:35:24;;;;;;;28.38;19.38;;;10.90;83.30;;;;;;5086235;28;20020;-70
2023/04/09 02:37:50;;;;;;;25.40;18.20;;;10.90;83.30;;;;;;5070284;28;20097;-67
2023/04/09 02:40:15;;;;;;;28.83;21.13;;;10.80;83.30;;;;;;5080626;28;20039;-68
2023/04/09 02:42:41;;;;;;;27.88;19.27;;;10.80;83.60;;;;;;5082332;28;20035;-67
2023/04/09 02:45:07;;;;;;;25.13;18.30;;;10.80;83.70;;;;;;5079528;28;20029;-71
2023/04/09 02:47:32;;;;;;;26.33;18.38;;;10.80;83.60;;;;;;5088143;28;20520;-71
2023/04/09 02:49:58;;;;;;;25.83;19.02;;;10.80;83.50;;;;;;5085201;28;20039;-69
2023/04/09 02:52:24;;;;;;;26.92;19.35;;;10.90;83.50;;;;;;5070255;28;20506;-66
2023/04/09 02:54:51;;;;;;;26.13;18.05;;;10.90;83.40;;;;;;5073194;28;20032;-67
2023/04/09 02:57:16;;;;;;;27.35;19.23;;;10.90;83.40;;;;;;5087960;28;20024;-67
2023/04/09 02:59:42;;;;;;;24.63;17.42;;;10.90;83.40;;;;;;5088987;28;20043;-67
2023/04/09 03:02:08;;;;;;;24.15;17.60;;;10.90;83.40;;;;;;5072203;28;20051;-68
2023/04/09 03:04:33;;;;;;;22.30;16.17;;;10.90;83.40;;;;;;5083682;28;20038;-70
2023/04/09 03:06:59;;;;;;;27.67;19.70;;;10.90;83.30;;;;;;5078626;28;20040;-67
2023/04/09 03:09:24;;;;;;;26.20;19.83;;;10.90;83.30;;;;;;5082585;28;20032;-68
2023/04/09 03:11:50;;;;;;;27.23;18.58;;;10.80;83.20;;;;;;5086644;28;20020;-71
2023/04/09 03:14:15;;;;;;;26.38;18.02;;;10.80;83.30;;;;;;5089089;28;20028;-69
2023/04/09 03:16:41;;;;;;;24.30;17.92;;;10.80;83.30;;;;;;5075221;28;20046;-67
2023/04/09 03:19:06;;;;;;;26.85;19.00;;;10.90;83.30;;;;;;5073975;28;21722;-68
2023/04/09 03:21:32;;;;;;;27.13;19.85;;;10.90;83.10;;;;;;5082900;28;20039;-68
2023/04/09 03:23:57;;;;;;;27.50;19.67;;;10.80;83.20;;;;;;5085377;28;20024;-67
2023/04/09 03:26:23;;;;;;;23.00;17.02;;;10.70;83.30;;;;;;5086779;28;20028;-67
2023/04/09 03:28:48;;;;;;;27.52;20.98;;;10.70;83.60;;;;;;5079975;28;20093;-68
2023/04/09 03:31:14;;;;;;;25.40;18.42;;;10.60;83.70;;;;;;5085804;28;20030;-68
2023/04/09 03:33:40;;;;;;;31.80;21.17;;;10.70;83.80;;;;;;5072029;28;20099;-67
2023/04/09 03:36:05;;;;;;;23.70;17.88;;;10.70;83.80;;;;;;5082048;28;20016;-67
2023/04/09 03:38:31;;;;;;;24.58;17.50;;;10.70;83.80;;;;;;5086569;28;20016;-66
2023/04/09 03:40:56;;;;;;;25.13;17.80;;;10.70;83.70;;;;;;5079555;28;20039;-66
2023/04/09 03:43:22;;;;;;;25.77;17.73;;;10.80;83.50;;;;;;5072956;28;20020;-67
2023/04/09 03:45:47;;;;;;;30.80;21.85;;;10.80;83.50;;;;;;5083378;28;20511;-67
2023/04/09 03:48:13;;;;;;;28.60;20.63;;;10.70;83.30;;;;;;5081969;28;20044;-67
2023/04/09 03:50:39;;;;;;;27.95;18.88;;;10.70;83.60;;;;;;5074514;28;20024;-67
2023/04/09 03:53:05;;;;;;;30.50;21.63;;;10.70;83.60;;;;;;5082254;28;20103;-67
2023/04/09 03:55:30;;;;;;;26.00;19.00;;;10.60;83.70;;;;;;5085761;28;20118;-67
2023/04/09 03:57:56;;;;;;;27.02;19.48;;;10.60;83.70;;;;;;5089780;28;20080;-68
2023/04/09 04:00:21;;;;;;;24.20;17.40;;;10.60;83.70;;;;;;5086792;28;20025;-68
2023/04/09 04:02:47;;;;;;;24.92;18.85;;;10.70;83.60;;;;;;5083661;28;20025;-67
2023/04/09 04:05:13;;;;;;;24.05;17.15;;;10.70;83.50;;;;;;5089145;28;20028;-68
2023/04/09 04:07:38;;;;;;;25.35;17.80;;;10.70;83.40;;;;;;5091727;28;20028;-68
2023/04/09 04:10:05;;;;;;;26.15;18.60;;;10.70;83.30;;;;;;5084284;28;20483;-68
2023/04/09 04:12:31;;;;;;;25.90;18.02;;;10.70;83.20;;;;;;5090957;28;20415;-68
2023/04/09 04:14:57;;;;;;;24.95;17.63;;;10.70;83.20;;;;;;5086233;28;20542;-68
2023/04/09 04:17:22;;;;;;;26.52;18.75;;;10.70;83.00;;;;;;5086137;28;20108;-67
2023/04/09 04:19:48;;;;;;;28.52;19.85;;;10.60;83.10;;;;;;5087997;28;20024;-67
2023/04/09 04:22:13;;;;;;;26.88;19.55;;;10.60;83.30;;;;;;5088810;28;20129;-69
2023/04/09 04:24:39;;;;;;;26.50;19.35;;;10.50;83.40;;;;;;5074303;28;20032;-67
2023/04/09 04:27:05;;;;;;;31.15;20.50;;;10.50;83.70;;;;;;5082233;28;20233;-66
2023/04/09 04:29:31;;;;;;;26.15;18.52;;;10.30;84.00;;;;;;5092005;28;20031;-66
2023/04/09 04:31:56;;;;;;;25.98;17.63;;;10.30;84.10;;;;;;5087984;28;20099;-68
2023/04/09 04:34:22;;;;;;;20.77;15.00;;;10.40;84.20;;;;;;5089547;28;20030;-69
2023/04/09 04:36:47;;;;;;;22.58;16.63;;;10.50;84.00;;;;;;5088948;28;20024;-68
2023/04/09 04:39:13;;;;;;;26.50;18.63;;;10.50;83.70;;;;;;5092141;28;20070;-67
2023/04/09 04:41:39;;;;;;;26.17;18.75;;;10.40;83.70;;;;;;5089558;28;20035;-67
2023/04/09 04:44:04;;;;;;;24.08;17.50;;;10.40;83.90;;;;;;5086598;28;20028;-70
2023/04/09 04:46:30;;;;;;;23.77;16.88;;;10.40;84.00;;;;;;5074269;28;20056;-67
2023/04/09 04:48:55;;;;;;;26.58;18.58;;;10.40;83.90;;;;;;5077182;28;20031;-67
2023/04/09 04:51:21;;;;;;;28.25;18.90;;;10.40;83.80;;;;;;5089627;28;20024;-68
2023/04/09 04:53:46;;;;;;;28.15;19.67;;;10.40;84.00;;;;;;5090642;28;20024;-72
2023/04/09 04:56:13;;;;;;;26.75;18.70;;;10.30;84.00;;;;;;5078633;28;20032;-67
2023/04/09 04:58:39;;;;;;;30.70;20.45;;;10.30;84.00;;;;;;5086576;28;20102;-71
2023/04/09 05:01:05;;;;;;;28.58;19.30;;;10.20;83.70;;;;;;5083174;28;20108;-70
2023/04/09 05:03:30;;;;;;;30.33;21.13;;;10.20;83.60;;;;;;5078040;28;20590;-67
2023/04/09 05:05:56;;;;;;;27.63;19.80;;;10.00;83.30;;;;;;5084878;28;20584;-68
2023/04/09 05:08:21;;;;;;;25.90;19.17;;;10.00;83.40;;;;;;5090862;28;20032;-71
2023/04/09 05:10:47;;;;;;;30.27;20.95;;;9.90;83.30;;;;;;5079911;28;20028;-70
2023/04/09 05:13:12;;;;;;;25.83;18.35;;;9.80;83.30;;;;;;5087683;28;20099;-68
2023/04/09 05:15:39;;;;;;;25.88;17.60;;;9.70;83.50;;;;;;5084727;28;20029;-68
2023/04/09 05:18:06;;;;;;;28.17;19.65;;;9.80;83.50;;;;;;5073052;28;20555;-68
2023/04/09 05:20:32;;;;;;;30.15;20.08;;;9.60;82.90;;;;;;5072348;28;20077;-69
2023/04/09 05:22:57;;;;;;;26.50;18.67;;;9.50;82.70;;;;;;5086679;28;20028;-68
2023/04/09 05:25:23;;;;;;;26.35;17.65;;;9.40;83.00;;;;;;5084989;28;20032;-67
2023/04/09 05:27:49;;;;;;;25.13;17.58;;;9.40;83.10;;;;;;5086737;28;20020;-67
2023/04/09 05:30:15;;;;;;;25.58;17.83;;;9.40;83.10;;;;;;5073131;28;20013;-68
2023/04/09 05:32:41;;;;;;;22.65;16.00;;;9.60;83.20;;;;;;5087892;28;20027;-67
2023/04/09 05:35:06;;;;;;;27.73;17.25;;;9.90;82.70;;;;;;5090844;28;20055;-68
2023/04/09 05:37:32;;;;;;;26.15;16.92;;;10.00;81.60;;;;;;5080319;28;20020;-70
2023/04/09 05:39:58;;;;;;;23.23;16.73;;;9.90;81.20;;;;;;5084368;28;20490;-68
2023/04/09 05:42:23;;;;;;;26.30;19.10;;;9.70;81.40;;;;;;5088832;28;20410;-67
2023/04/09 05:44:49;;;;;;;26.70;18.10;;;9.60;81.70;;;;;;5078404;28;20028;-69
2023/04/09 05:47:14;;;;;;;26.33;17.95;;;9.40;82.20;;;;;;5072129;28;20423;-68
2023/04/09 05:49:40;;;;;;;27.10;18.98;;;9.40;82.40;;;;;;5086379;28;20375;-67
2023/04/09 05:52:06;;;;;;;25.30;17.58;;;9.30;82.80;;;;;;5081034;28;20467;-67
2023/04/09 05:54:31;;;;;;;26.75;19.08;;;9.40;82.90;;;;;;5087877;28;20059;-67
2023/04/09 05:56:57;;;;;;;26.00;17.98;;;9.50;82.70;;;;;;5082833;28;20423;-67
2023/04/09 05:59:22;;;;;;;27.05;18.10;;;9.50;82.40;;;;;;5089818;28;20024;-69
2023/04/09 06:01:48;;;;;;;24.45;16.77;;;9.50;82.20;;;;;;5085988;28;20032;-68
2023/04/09 06:04:14;;;;;;;27.02;18.92;;;9.60;82.20;;;;;;5088397;28;20034;-68
2023/04/09 06:06:40;;;;;;;30.48;19.77;;;9.70;82.40;;;;;;5088539;28;20543;-67
2023/04/09 06:09:05;;;;;;;25.60;18.05;;;10.60;81.20;;;;;;5088776;28;20043;-66
2023/04/09 06:11:32;;;;;;;28.42;19.83;;;11.40;78.40;;;;;;5089658;28;20034;-68
2023/04/09 06:13:57;;;;;;;28.35;19.15;;;11.90;75.10;;;;;;5075985;28;20028;-68
2023/04/09 06:16:23;;;;;;;26.25;18.73;;;12.50;73.20;;;;;;5084446;28;20027;-66
2023/04/09 06:18:53;;;;;;;30.73;20.58;;;13.10;70.90;;;;;;5072878;28;20027;-66
2023/04/09 06:21:19;;;;;;;29.40;19.25;;;13.50;68.10;;;;;;5086525;28;20554;-68
2023/04/09 06:23:44;;;;;;;28.65;19.92;;;13.60;67.00;;;;;;5080955;28;20107;-67
2023/04/09 06:26:10;;;;;;;24.50;16.55;;;13.70;66.40;;;;;;5077146;28;20494;-68
2023/04/09 06:28:35;;;;;;;26.48;17.63;;;14.40;66.30;;;;;;5075453;28;20032;-68
2023/04/09 06:31:01;;;;;;;28.88;19.88;;;14.90;64.00;;;;;;5089943;28;20028;-69
2023/04/09 06:33:26;;;;;;;28.45;18.95;;;15.20;62.40;;;;;;5084607;28;20025;-68
2023/04/09 06:35:52;;;;;;;29.88;20.48;;;15.50;61.70;;;;;;5075947;28;20025;-69
2023/04/09 06:38:17;;;;;;;26.23;18.33;;;15.30;59.80;;;;;;5079768;28;20499;-68
2023/04/09 06:40:44;;;;;;;23.52;17.42;;;15.50;60.00;;;;;;5088721;28;20556;-66
2023/04/09 06:43:10;;;;;;;25.85;18.33;;;15.90;59.70;;;;;;5085440;28;20093;-67
2023/04/09 06:45:36;;;;;;;25.02;18.55;;;16.20;59.00;;;;;;5084414;28;20020;-66
2023/04/09 06:48:02;;;;;;;26.35;18.10;;;16.60;58.60;;;;;;5081990;28;20037;-67
2023/04/09 06:50:28;;;;;;;26.98;18.70;;;16.90;56.50;;;;;;5090274;28;20023;-67
2023/04/09 06:52:54;;;;;;;23.85;17.17;;;16.70;56.50;;;;;;5083820;28;20455;-67
2023/04/09 06:55:20;;;;;;;22.98;16.30;;;17.30;56.80;;;;;;5089650;28;20032;-67
2023/04/09 06:57:46;;;;;;;27.08;19.02;;;18.00;55.70;;;;;;5082063;28;20487;-68
2023/04/09 07:00:12;;;;;;;22.15;16.27;;;18.40;54.10;;;;;;5085501;28;20043;-68
2023/04/09 07:02:38;;;;;;;24.58;17.52;;;18.90;53.50;;;;;;5084609;28;20454;-68
2023/04/09 07:05:04;;;;;;;22.95;16.70;;;19.30;52.10;;;;;;5085068;28;20051;-67
2023/04/09 07:07:30;;;;;;;22.13;16.77;;;19.50;51.70;;;;;;5086302;28;20028;-68
2023/04/09 07:09:56;;;;;;;22.67;16.23;;;19.70;51.20;;;;;;5088895;28;20024;-68
2023/04/09 07:12:31;;;;;;;23.42;17.17;;;19.90;50.40;;;;;;5086805;28;20836;-68
2023/04/09 07:15:01;;;;;;;22.10;16.20;;;20.00;49.30;;;;;;5086522;28;20028;-67
2023/04/09 07:17:27;;;;;;;22.23;16.83;;;20.00;49.80;;;;;;5081566;28;20051;-67
2023/04/09 07:19:53;;;;;;;21.58;15.77;;;20.40;48.90;;;;;;5082768;28;20056;-68
2023/04/09 07:22:22;;;;;;;19.60;13.73;;;20.60;49.00;;;;;;5086921;28;20069;-68
2023/04/09 07:24:52;;;;;;;22.55;16.73;;;21.20;48.40;;;;;;5086541;28;20036;-68
2023/04/09 07:27:20;;;;;;;20.67;14.80;;;21.20;47.20;;;;;;5083544;28;20020;-68
2023/04/09 07:29:45;;;;;;;22.13;16.30;;;21.60;47.50;;;;;;5081501;28;20035;-67
2023/04/09 07:32:11;;;;;;;23.58;16.75;;;21.60;46.00;;;;;;5085136;28;20024;-67
2023/04/09 07:34:36;;;;;;;21.45;15.80;;;21.50;46.20;;;;;;5088653;28;20063;-67
2023/04/09 07:37:02;;;;;;;19.20;14.77;;;21.50;45.90;;;;;;5091669;28;20028;-70
2023/04/09 07:39:28;;;;;;;20.60;15.65;;;21.60;45.90;;;;;;5086922;28;20031;-67
2023/04/09 07:41:53;;;;;;;17.35;13.48;;;21.50;46.10;;;;;;5089251;28;20024;-67
2023/04/09 07:44:19;;;;;;;19.65;14.75;;;22.10;45.00;;;;;;5089634;28;20036;-66
2023/04/09 07:46:44;;;;;;;18.48;14.43;;;22.00;44.60;;;;;;5089754;28;20032;-69
2023/04/09 07:49:10;;;;;;;18.52;14.32;;;21.90;44.90;;;;;;5084971;28;20020;-69
2023/04/09 07:51:36;;;;;;;20.67;15.23;;;22.10;44.80;;;;;;5091017;28;20012;-67
2023/04/09 07:54:01;;;;;;;22.60;16.88;;;22.10;44.60;;;;;;5088932;28;20024;-67
2023/04/09 07:56:27;;;;;;;22.50;15.88;;;22.40;44.10;;;;;;5091562;28;20032;-69
2023/04/09 07:58:52;;;;;;;20.92;16.15;;;22.60;43.90;;;;;;5086075;28;20020;-68
2023/04/09 08:01:23;;;;;;;18.45;13.30;;;22.10;43.70;;;;;;5090555;28;20035;-68
2023/04/09 08:03:49;;;;;;;22.55;16.80;;;22.30;44.30;;;;;;5085918;28;20016;-68
2023/04/09 08:06:15;;;;;;;20.70;15.15;;;22.50;43.20;;;;;;5092073;28;20069;-67
2023/04/09 08:08:41;;;;;;;20.30;15.73;;;22.40;43.70;;;;;;5088497;28;20032;-67
2023/04/09 08:11:06;;;;;;;19.70;15.23;;;22.30;43.70;;;;;;5091929;28;20043;-66
2023/04/09 08:13:34;;;;;;;18.52;14.07;;;22.50;43.30;;;;;;5088843;28;21594;-66
2023/04/09 08:16:01;;;;;;;21.27;15.77;;;22.50;43.70;;;;;;5089914;28;20401;-66
2023/04/09 08:18:27;;;;;;;18.05;13.52;;;22.30;43.10;;;;;;5085167;28;20569;-68
2023/04/09 08:20:52;;;;;;;20.77;15.68;;;22.50;43.60;;;;;;5087020;28;20103;-66
2023/04/09 08:23:18;;;;;;;20.55;15.68;;;22.50;43.10;;;;;;5086523;28;20119;-69
2023/04/09 08:25:43;;;;;;;21.58;16.55;;;22.00;43.30;;;;;;5081589;28;20547;-66
2023/04/09 08:28:09;;;;;;;20.38;15.18;;;21.40;43.30;;;;;;5086112;28;20054;-66
2023/04/09 08:30:35;;;;;;;22.00;16.25;;;20.90;44.60;;;;;;5087787;28;20046;-67
2023/04/09 08:33:01;;;;;;;20.60;15.30;;;20.60;44.40;;;;;;5089264;28;20523;-68
2023/04/09 08:35:28;;;;;;;18.45;14.00;;;19.90;45.30;;;;;;5085474;28;20032;-67
2023/04/09 08:37:55;;;;;;;19.15;14.65;;;19.90;46.00;;;;;;5087687;28;20024;-66
2023/04/09 08:40:21;;;;;;;22.83;16.85;;;19.70;46.30;;;;;;5088349;28;20127;-68
2023/04/09 08:42:53;;;;;;;20.35;15.63;;;19.30;46.80;;;;;;5088428;28;20099;-66
2023/04/09 08:45:19;;;;;;;20.63;15.70;;;18.30;48.30;;;;;;5086566;28;20538;-68
2023/04/09 08:47:46;;;;;;;20.10;15.43;;;17.20;51.20;;;;;;5086107;28;20024;-67
2023/04/09 08:50:13;;;;;;;21.80;16.25;;;16.50;53.10;;;;;;5088711;28;20028;-67
2023/04/09 08:52:39;;;;;;;19.27;15.02;;;15.90;54.40;;;;;;5087540;28;20016;-67
2023/04/09 08:55:05;;;;;;;21.40;15.88;;;15.50;55.80;;;;;;5086876;28;20016;-67
2023/04/09 08:57:37;;;;;;;21.20;16.25;;;15.20;56.60;;;;;;5082670;28;20024;-66
2023/04/09 09:00:03;;;;;;;22.90;17.10;;;15.00;57.40;;;;;;5085309;28;20634;-70
2023/04/09 09:02:30;;;;;;;19.98;14.90;;;14.90;57.80;;;;;;5085682;28;20532;-68
2023/04/09 09:04:59;;;;;;;20.50;14.93;;;14.80;58.10;;;;;;5085926;28;20016;-66
2023/04/09 09:07:27;;;;;;;19.92;14.68;;;14.80;57.90;;;;;;5084835;28;20061;-67
2023/04/09 09:09:57;;;;;;;19.27;13.25;;;14.80;57.80;;;;;;5083448;28;20066;-68
2023/04/09 09:12:38;;;;;;;18.25;13.77;;;14.80;57.80;;;;;;5084172;28;20031;-67
2023/04/09 09:15:26;;;;;;;18.02;13.57;;;14.80;58.10;;;;;;5085914;28;20505;-67
2023/04/09 09:17:56;;;;;;;17.42;13.18;;;14.80;57.40;;;;;;5085701;28;20101;-66
2023/04/09 09:20:23;;;;;;;19.35;14.10;;;14.80;56.90;;;;;;5087032;28;20085;-67
2023/04/09 09:22:53;;;;;;;19.30;13.43;;;14.80;57.20;;;;;;5086809;28;20500;-67
2023/04/09 09:25:23;;;;;;;20.25;14.52;;;14.80;56.80;;;;;;5082968;28;20379;-66
2023/04/09 09:27:49;;;;;;;15.10;11.45;;;14.70;56.70;;;;;;5087972;28;20047;-69
2023/04/09 09:30:26;;;;;;;17.50;12.55;;;14.80;57.10;;;;;;5086333;28;20027;-66
2023/04/09 09:33:12;;;;;;;17.95;13.18;;;14.80;56.40;;;;;;5086207;28;20024;-70
2023/04/09 09:35:48;;;;;;;15.70;11.68;;;14.80;56.00;;;;;;5084977;28;20048;-69
2023/04/09 09:38:15;;;;;;;15.65;12.13;;;14.80;56.10;;;;;;5085351;28;20385;-70
2023/04/09 09:40:40;;;;;;;19.05;13.65;;;14.80;56.10;;;;;;5083830;28;20016;-68
2023/04/09 09:43:06;;;;;;;19.27;13.90;;;14.80;55.80;;;;;;5086517;28;20436;-70
2023/04/09 09:45:32;;;;;;;16.55;13.13;;;14.70;55.90;;;;;;5085788;28;20035;-69
2023/04/09 09:47:58;;;;;;;16.45;12.35;;;14.80;56.40;;;;;;5082725;28;20103;-67
2023/04/09 09:50:24;;;;;;;19.85;15.18;;;14.80;56.00;;;;;;5080893;28;20583;-70
2023/04/09 09:52:53;;;;;;;20.60;13.85;;;14.80;56.10;;;;;;5086643;28;20099;-68
2023/04/09 09:55:20;;;;;;;18.92;13.85;;;14.80;56.00;;;;;;5084910;28;20039;-68
2023/04/09 09:57:47;;;;;;;17.08;12.55;;;14.70;56.20;;;;;;5087153;28;20008;-68
2023/04/09 10:00:14;;;;;;;16.73;12.40;;;14.80;56.30;;;;;;5080169;28;20398;-68
2023/04/09 10:02:56;;;;;;;15.43;12.20;;;14.90;56.10;;;;;;5085208;28;20042;-66
2023/04/09 10:05:25;;;;;;;;;;;15.00;55.80;;;;;;5080930;28;20020;-66
2023/04/09 10:07:53;;;;;;;16.73;11.90;;;15.10;55.40;;;;;;5081617;28;19904;-67
2023/04/09 10:10:18;;;;;;;16.25;11.63;;;15.00;54.30;;;;;;5083131;28;20039;-68
2023/04/09 10:12:45;;;;;;;14.52;11.02;;;15.00;54.70;;;;;;5080308;28;20095;-67
2023/04/09 10:15:11;;;;;;;17.45;13.05;;;15.10;54.60;;;;;;5084925;28;20015;-67
2023/04/09 10:17:37;;;;;;;19.15;13.82;;;15.20;54.40;;;;;;5083877;28;20020;-68
2023/04/09 10:20:27;;;;;;;15.68;12.32;;;15.20;54.00;;;;;;5083403;28;20399;-70
2023/04/09 10:22:54;;;;;;;17.02;12.60;;;15.10;54.40;;;;;;5082098;28;20020;-69
2023/04/09 10:25:19;;;;;;;17.98;12.98;;;15.20;54.60;;;;;;5084213;28;20436;-68
2023/04/09 10:27:47;;;;;;;18.00;13.52;;;15.20;54.50;;;;;;5082935;28;20016;-69
2023/04/09 10:30:32;;;;;;;17.85;13.70;;;15.30;54.70;;;;;;5082843;28;20712;-69
2023/04/09 10:33:25;;;;;;;15.10;11.65;;;15.30;54.20;;;;;;5086600;28;20024;-66
2023/04/09 10:35:51;;;;;;;14.77;11.57;;;15.30;54.80;;;;;;5081802;28;20028;-68
2023/04/09 10:38:31;;;;;;;14.75;10.02;;;15.30;53.90;;;;;;5086401;28;20044;-68
2023/04/09 10:40:57;;;;;;;14.90;10.50;;;15.40;53.00;;;;;;5084227;28;20116;-66
2023/04/09 10:43:23;;;;;;;11.95;9.52;;;15.50;53.10;;;;;;5086977;28;20062;-67
2023/04/09 10:45:52;;;;;;;10.90;8.25;;;15.60;52.50;;;;;;5084116;28;20472;-67
2023/04/09 10:48:20;;;;;;;11.50;8.60;;;15.60;50.80;;;;;;5084659;28;20105;-66
2023/04/09 10:50:50;;;;;;;11.20;8.02;;;15.50;50.20;;;;;;5082280;28;20076;-67
2023/04/09 10:53:24;;;;;;;10.77;7.90;;;15.40;50.80;;;;;;5086980;28;20016;-66
2023/04/09 10:55:52;;;;;;;9.98;7.72;;;15.60;51.30;;;;;;5084898;28;20039;-67
2023/04/09 10:58:18;;;;;;;12.38;9.52;;;15.80;51.20;;;;;;5085135;28;20497;-67
2023/04/09 11:00:45;;;;;;;11.27;7.90;;;15.90;50.80;;;;;;5080821;28;20024;-67
2023/04/09 11:03:22;;;;;;;10.55;8.02;;;16.00;49.50;;;;;;5086465;28;20383;-66
2023/04/09 11:06:01;;;;;;;10.55;7.88;;;16.00;50.00;;;;;;5082321;28;20558;-68
2023/04/09 11:08:29;;;;;;;14.63;9.85;;;16.10;50.00;;;;;;5084162;28;20040;-66
2023/04/09 11:10:57;;;;;;;11.13;8.07;;;16.00;48.80;;;;;;5083582;28;20024;-67
2023/04/09 11:13:23;;;;;;;10.15;7.18;;;16.00;49.30;;;;;;5085199;28;20480;-67
2023/04/09 11:15:49;;;;;;;10.98;8.20;;;16.10;49.60;;;;;;5085457;28;20021;-67
2023/04/09 11:18:24;;;;;;;11.73;8.50;;;16.10;49.40;;;;;;5081044;28;20042;-67
2023/04/09 11:20:56;;;;;;;12.07;9.00;;;16.10;49.70;;;;;;5082779;28;20036;-66
2023/04/09 11:23:23;;;;;;;10.60;8.02;;;16.00;49.50;;;;;;5082462;28;20078;-66
2023/04/09 11:25:50;;;;;;;11.68;8.60;;;16.10;50.50;;;;;;5080550;28;20128;-68
2023/04/09 11:28:16;;;;;;;10.73;8.10;;;16.10;49.70;;;;;;5083205;28;20383;-67
2023/04/09 11:30:42;;;;;;;12.52;9.02;;;16.10;49.50;;;;;;5079015;28;20024;-67
2023/04/09 11:33:08;;;;;;;12.93;8.57;;;16.10;49.80;;;;;;5081322;28;20550;-67
2023/04/09 11:35:37;;;;;;;12.20;8.88;;;16.30;49.80;;;;;;5082308;28;20169;-65
2023/04/09 11:38:10;;;;;;;10.65;7.93;;;16.30;49.40;;;;;;5080638;28;20034;-69
2023/04/09 11:40:46;;;;;;;9.60;7.50;;;16.40;49.80;;;;;;5083114;28;20024;-67
2023/04/09 11:43:13;;;;;;;11.57;8.60;;;16.50;48.90;;;;;;5083789;28;20123;-66
2023/04/09 11:45:39;;;;;;;11.57;8.05;;;16.50;47.40;;;;;;5088178;28;20051;-67
2023/04/09 11:48:05;;;;;;;11.85;8.60;;;16.20;47.60;;;;;;5088803;28;20060;-66
2023/04/09 11:50:31;;;;;;;10.68;7.50;;;16.20;48.60;;;;;;5088177;28;20604;-66
2023/04/09 11:52:57;;;;;;;10.32;7.45;;;16.40;48.90;;;;;;5086372;28;20055;-67
2023/04/09 11:55:24;;;;;;;9.88;7.20;;;16.50;48.70;;;;;;5087574;28;20043;-68
2023/04/09 11:57:52;;;;;;;11.13;7.95;;;16.70;48.10;;;;;;5089072;28;20623;-67
2023/04/09 12:00:19;;;;;;;9.60;7.47;;;16.60;47.10;;;;;;5085276;28;20043;-66
2023/04/09 12:02:49;;;;;;;9.70;7.00;;;16.50;47.60;;;;;;5084108;28;20028;-67
2023/04/09 12:05:26;;;;;;;9.43;6.88;;;16.50;47.20;;;;;;5083389;28;20027;-67
2023/04/09 12:08:06;;;;;;;9.65;7.55;;;16.50;47.50;;;;;;5083349;28;20024;-67
2023/04/09 12:10:37;;;;;;;9.63;7.30;;;16.40;46.70;;;;;;5081120;28;20089;-66
2023/04/09 12:13:06;;;;;;;8.43;6.63;;;16.40;46.70;;;;;;5081785;28;20028;-67
2023/04/09 12:15:34;;;;;;;10.75;7.30;;;16.30;47.00;;;;;;5085654;28;20016;-66
2023/04/09 12:17:59;;;;;;;8.57;7.00;;;16.30;46.70;;;;;;5083088;28;20032;-67
2023/04/09 12:20:27;;;;;;;9.13;7.03;;;16.10;46.90;;;;;;5084922;28;20038;-68
2023/04/09 12:22:53;;;;;;;9.75;7.53;;;16.10;46.70;;;;;;5087246;28;20490;-67
2023/04/09 12:25:18;;;;;;;9.05;7.13;;;16.10;47.10;;;;;;5083626;28;20031;-67
2023/04/09 12:27:44;;;;;;;9.68;7.35;;;16.20;47.70;;;;;;5086829;28;20024;-66
2023/04/09 12:30:10;;;;;;;10.32;8.02;;;16.50;47.40;;;;;;5085488;28;20032;-67
2023/04/09 12:32:35;;;;;;;9.40;7.60;;;16.60;46.50;;;;;;5083124;28;20028;-68